Time;durP1;ratioP1;P1;durP2;ratioP2;P2;SDS_P1;SDS_P2;PMS_P1;PMS_P2;Temp;Humidity;BMP_temperature;BMP_pressure;BME280_temperature;BME280_humidity;BME280_pressure;Samples;Min_cycle;Max_cycle;Signal;HPM_P1;HPM_P2
2022/05/18 00:04:04;;;;;;;2.10;1.50;;;20.40;66.00;;;;;;20842971;28;20144;-75
2022/05/18 00:14:05;;;;;;;2.17;1.73;;;20.40;65.90;;;;;;20875420;28;20389;-75
2022/05/18 00:24:06;;;;;;;2.45;1.77;;;20.40;65.90;;;;;;20873453;28;20505;-75
2022/05/18 00:34:08;;;;;;;2.35;1.70;;;20.40;65.90;;;;;;20872596;28;20029;-75
2022/05/18 00:44:08;;;;;;;1.75;1.17;;;20.40;65.90;;;;;;20838997;28;20074;-76
2022/05/18 00:54:11;;;;;;;2.03;1.63;;;20.40;65.90;;;;;;20855281;28;20041;-75
2022/05/18 01:04:12;;;;;;;2.03;1.48;;;20.40;65.80;;;;;;20854312;28;20473;-76
2022/05/18 01:14:18;;;;;;;2.20;1.60;;;20.30;65.80;;;;;;20867677;28;20044;-75
2022/05/18 01:24:25;;;;;;;2.35;1.83;;;20.30;65.70;;;;;;20771105;28;20489;-76
2022/05/18 01:34:27;;;;;;;2.60;1.73;;;20.30;65.70;;;;;;20786403;28;20037;-75
2022/05/18 01:44:28;;;;;;;1.88;1.67;;;20.30;65.70;;;;;;20802850;28;20041;-76
2022/05/18 01:54:29;;;;;;;2.28;1.70;;;20.30;65.70;;;;;;20786843;28;20581;-76
2022/05/18 02:04:32;;;;;;;2.15;1.42;;;20.30;65.70;;;;;;20785804;28;20037;-76
2022/05/18 02:14:32;;;;;;;2.10;1.73;;;20.30;65.70;;;;;;20801474;28;20068;-75
2022/05/18 02:24:33;;;;;;;1.98;1.35;;;20.20;65.70;;;;;;20785057;28;20120;-75
2022/05/18 02:34:33;;;;;;;2.10;1.70;;;20.20;65.60;;;;;;20802138;28;20111;-75
2022/05/18 02:44:34;;;;;;;1.77;1.27;;;20.20;65.60;;;;;;20805163;28;20045;-75
2022/05/18 03:04:53;;;;;;;2.63;1.70;;;20.20;65.60;;;;;;20817466;28;20069;-76
2022/05/18 03:14:54;;;;;;;2.70;1.73;;;20.20;65.70;;;;;;20805540;28;20112;-75
2022/05/18 03:24:54;;;;;;;2.55;1.95;;;20.20;65.70;;;;;;20853684;28;20060;-77
2022/05/18 03:34:55;;;;;;;2.20;1.77;;;20.20;65.70;;;;;;20893771;28;20500;-72
2022/05/18 03:44:56;;;;;;;2.25;1.40;;;20.20;65.70;;;;;;20893554;28;20033;-70
2022/05/18 03:54:56;;;;;;;2.72;1.90;;;20.10;65.60;;;;;;20875654;28;20032;-71
2022/05/18 04:04:57;;;;;;;2.28;1.67;;;20.10;65.60;;;;;;20908256;28;20120;-71
2022/05/18 04:14:57;;;;;;;2.55;1.90;;;20.10;65.60;;;;;;20913535;28;20044;-71
2022/05/18 04:25:01;;;;;;;1.60;1.38;;;20.10;65.60;;;;;;20972475;28;20040;-71
2022/05/18 04:35:02;;;;;;;2.15;1.40;;;20.10;65.60;;;;;;20955444;28;20107;-71
2022/05/18 04:45:04;;;;;;;1.92;1.73;;;20.10;65.70;;;;;;20954434;28;20139;-70
2022/05/18 04:55:05;;;;;;;1.73;1.50;;;20.10;65.60;;;;;;20937170;28;20043;-71
2022/05/18 05:05:10;;;;;;;2.05;1.48;;;20.10;65.60;;;;;;20937454;28;20040;-70
2022/05/18 05:15:11;;;;;;;2.07;1.50;;;20.10;65.60;;;;;;20841288;28;20418;-73
2022/05/18 05:25:14;;;;;;;2.65;1.73;;;20.10;65.50;;;;;;20851693;28;20029;-77
2022/05/18 05:35:14;;;;;;;2.03;1.70;;;20.10;65.50;;;;;;20837960;28;20450;-77
2022/05/18 05:45:15;;;;;;;2.35;1.70;;;20.10;65.50;;;;;;20837108;28;20040;-78
2022/05/18 05:55:15;;;;;;;2.20;1.90;;;20.10;65.40;;;;;;20836442;28;20029;-79
2022/05/18 06:05:17;;;;;;;2.70;2.05;;;20.10;65.50;;;;;;20859407;28;20037;-79
2022/05/18 06:15:17;;;;;;;2.70;1.75;;;20.10;65.40;;;;;;20952058;28;20082;-78
2022/05/18 06:25:19;;;;;;;2.22;1.67;;;20.20;65.40;;;;;;20965968;28;20043;-75
2022/05/18 06:35:20;;;;;;;3.40;2.10;;;20.20;65.50;;;;;;20917348;28;20037;-75
2022/05/18 06:45:20;;;;;;;3.17;1.35;;;20.20;65.40;;;;;;20866219;28;20297;-75
2022/05/18 06:55:21;;;;;;;2.63;1.93;;;20.20;65.40;;;;;;20798604;28;20484;-76
2022/05/18 07:05:22;;;;;;;2.13;1.77;;;20.20;65.30;;;;;;20838179;28;20770;-76
2022/05/18 07:15:22;;;;;;;1.65;1.48;;;20.20;65.30;;;;;;21196302;22;20045;-77
2022/05/18 07:25:23;;;;;;;2.63;2.05;;;20.20;65.20;;;;;;20813042;28;20052;-79
2022/05/18 07:35:24;;;;;;;2.20;1.45;;;20.30;65.30;;;;;;20795520;28;20461;-78
2022/05/18 07:45:25;;;;;;;2.13;1.63;;;20.20;65.10;;;;;;20795579;28;20037;-77
2022/05/18 07:55:26;;;;;;;2.00;1.75;;;20.20;65.20;;;;;;20763026;28;20444;-77
2022/05/18 08:05:28;;;;;;;1.98;1.65;;;20.30;65.20;;;;;;20760703;28;20034;-77
2022/05/18 08:15:29;;;;;;;3.08;1.80;;;20.30;65.10;;;;;;20793385;28;20051;-77
2022/05/18 08:25:30;;;;;;;2.20;1.52;;;20.30;65.10;;;;;;20775929;28;20083;-77
2022/05/18 08:35:30;;;;;;;2.22;1.65;;;20.30;65.10;;;;;;20775339;28;20048;-77
2022/05/18 08:45:35;;;;;;;2.23;1.20;;;20.40;65.10;;;;;;20771154;28;20036;-77
2022/05/18 08:55:41;;;;;;;1.90;1.30;;;20.30;65.00;;;;;;20791013;28;20596;-77
2022/05/18 09:06:19;;;;;;;2.78;1.50;;;20.40;65.00;;;;;;20772683;28;20048;-77
2022/05/18 09:16:30;;;;;;;1.75;1.50;;;20.40;65.00;;;;;;20804072;28;20064;-77
2022/05/18 09:26:48;;;;;;;1.95;1.27;;;20.40;64.90;;;;;;20762523;28;20394;-76
2022/05/18 09:37:19;;;;;;;2.20;1.33;;;20.40;64.90;;;;;;20786728;28;20044;-76
2022/05/18 09:47:21;;;;;;;1.98;1.70;;;20.40;64.90;;;;;;20767457;28;20127;-78
2022/05/18 09:57:24;;;;;;;1.60;1.30;;;20.40;64.90;;;;;;20798878;28;20041;-76
2022/05/18 10:07:31;;;;;;;1.70;1.58;;;20.40;64.80;;;;;;20804651;28;20449;-76
2022/05/18 10:17:33;;;;;;;2.00;1.50;;;20.40;64.90;;;;;;20789667;28;20533;-78
2022/05/18 10:27:44;;;;;;;2.28;1.38;;;20.40;64.80;;;;;;20772308;28;20090;-78
2022/05/18 10:37:45;;;;;;;2.20;1.67;;;20.40;64.80;;;;;;20771489;28;20395;-78
2022/05/18 10:47:47;;;;;;;1.40;1.25;;;20.40;64.80;;;;;;20787383;28;20038;-79
2022/05/18 10:57:57;;;;;;;2.13;1.38;;;20.40;64.70;;;;;;20798241;28;20109;-79
2022/05/18 11:07:58;;;;;;;1.90;1.55;;;20.40;64.80;;;;;;20720199;28;20041;-79
2022/05/18 11:18:29;;;;;;;2.22;1.75;;;20.40;64.70;;;;;;20746182;28;20064;-78
2022/05/18 11:28:57;;;;;;;1.88;1.45;;;20.50;64.80;;;;;;20793388;28;22232;-78
2022/05/18 11:39:22;;;;;;;2.30;1.50;;;20.50;64.70;;;;;;20791741;28;20042;-80
2022/05/18 11:49:28;;;;;;;1.80;1.45;;;20.50;64.70;;;;;;20801201;28;20046;-83
2022/05/18 12:10:11;;;;;;;1.67;1.25;;;20.50;64.70;;;;;;20815989;28;20091;-80
2022/05/18 12:20:34;;;;;;;1.70;1.20;;;20.50;64.70;;;;;;20780218;28;20485;-75
2022/05/18 12:30:35;;;;;;;1.48;1.38;;;20.60;64.70;;;;;;20748184;28;20450;-77
2022/05/18 12:40:46;;;;;;;1.75;1.20;;;20.60;64.60;;;;;;20775846;28;20041;-73
2022/05/18 12:50:55;;;;;;;1.40;1.30;;;20.60;64.50;;;;;;20774922;28;20038;-78
2022/05/18 13:01:07;;;;;;;2.67;1.20;;;20.70;64.50;;;;;;20774390;28;20033;-76
2022/05/18 13:11:09;;;;;;;2.40;1.70;;;20.70;64.50;;;;;;20775583;28;20095;-71
2022/05/18 13:21:22;;;;;;;2.50;1.60;;;20.70;64.40;;;;;;20775170;28;20098;-77
2022/05/18 13:31:23;;;;;;;1.73;1.30;;;20.70;64.40;;;;;;20783966;28;20052;-74
2022/05/18 13:41:24;;;;;;;1.42;1.23;;;20.80;64.40;;;;;;20786743;28;20033;-77
2022/05/18 13:51:24;;;;;;;1.38;1.27;;;20.80;64.30;;;;;;20752412;28;20052;-77
2022/05/18 14:01:30;;;;;;;1.80;1.45;;;20.80;64.30;;;;;;20770034;28;20044;-73
2022/05/18 14:11:30;;;;;;;3.13;1.65;;;20.90;64.30;;;;;;20766138;28;20095;-74
2022/05/18 14:21:31;;;;;;;1.53;1.43;;;20.80;64.30;;;;;;20786102;28;20025;-74
2022/05/18 14:31:32;;;;;;;2.23;1.63;;;20.90;64.40;;;;;;20752796;28;20299;-73
2022/05/18 14:41:38;;;;;;;2.55;1.48;;;20.90;64.40;;;;;;20775533;28;20288;-74
2022/05/18 14:51:43;;;;;;;2.40;1.70;;;20.90;64.40;;;;;;20761853;28;20136;-79
2022/05/18 15:01:45;;;;;;;2.65;1.80;;;20.90;64.40;;;;;;20780546;28;20049;-74
2022/05/18 15:11:48;;;;;;;3.20;1.92;;;21.00;64.40;;;;;;20763769;28;20081;-75
2022/05/18 15:21:48;;;;;;;2.97;2.13;;;21.10;64.60;;;;;;20794611;28;20037;-76
2022/05/18 15:31:51;;;;;;;2.90;2.03;;;21.30;64.90;;;;;;20769288;28;20108;-77
2022/05/18 15:41:52;;;;;;;4.22;2.30;;;21.40;64.90;;;;;;20775270;28;20033;-75
2022/05/18 15:51:55;;;;;;;5.07;2.33;;;21.50;64.90;;;;;;20793232;28;20517;-73
2022/05/18 16:01:56;;;;;;;3.65;1.85;;;21.60;65.00;;;;;;20775224;28;20038;-73
2022/05/18 16:11:57;;;;;;;3.20;2.13;;;21.70;65.00;;;;;;20776385;28;20044;-74
2022/05/18 16:21:58;;;;;;;3.72;2.15;;;21.80;64.90;;;;;;20774845;28;20029;-72
2022/05/18 16:31:58;;;;;;;2.72;1.83;;;21.80;64.80;;;;;;20773566;28;20116;-77
2022/05/18 16:41:59;;;;;;;3.73;2.00;;;21.90;64.80;;;;;;20773498;28;20033;-74
2022/05/18 16:52:00;;;;;;;2.90;2.17;;;22.00;64.80;;;;;;20783924;28;20128;-72
2022/05/18 17:02:01;;;;;;;3.47;2.00;;;22.00;64.70;;;;;;20701512;28;20470;-71
2022/05/18 17:12:03;;;;;;;3.80;2.33;;;22.00;64.80;;;;;;20759757;28;20476;-73
2022/05/18 17:22:04;;;;;;;3.38;2.03;;;22.00;64.90;;;;;;20769717;28;20136;-74
2022/05/18 17:32:04;;;;;;;3.15;2.28;;;22.00;65.00;;;;;;20787660;28;20040;-78
2022/05/18 17:42:05;;;;;;;1.90;1.65;;;21.90;64.90;;;;;;20767752;28;20040;-77
2022/05/18 17:52:07;;;;;;;3.78;2.00;;;21.90;65.10;;;;;;20752739;28;20034;-79
2022/05/18 18:02:16;;;;;;;2.60;2.13;;;21.80;65.30;;;;;;20771011;28;20033;-80
2022/05/18 18:12:17;;;;;;;3.25;2.08;;;21.70;65.30;;;;;;20785353;28;20076;-79
2022/05/18 18:22:18;;;;;;;2.17;1.80;;;21.70;65.30;;;;;;20762757;28;20045;-79
2022/05/18 18:32:23;;;;;;;2.33;1.90;;;21.60;65.30;;;;;;20705087;28;20957;-75
2022/05/18 18:42:29;;;;;;;3.13;1.70;;;21.60;65.30;;;;;;20727031;28;20053;-76
2022/05/18 19:02:57;;;;;;;2.50;1.70;;;21.60;65.40;;;;;;20794816;28;20045;-78
2022/05/18 19:12:59;;;;;;;2.50;1.88;;;21.50;65.30;;;;;;20805905;28;20474;-80
2022/05/18 19:23:01;;;;;;;1.33;1.23;;;21.50;65.30;;;;;;20805210;28;20034;-77
2022/05/18 19:33:02;;;;;;;2.38;1.67;;;21.40;65.30;;;;;;20786197;28;20038;-81
2022/05/18 19:43:04;;;;;;;2.60;2.10;;;21.40;65.40;;;;;;20803426;28;20045;-79
2022/05/18 19:53:05;;;;;;;2.10;1.60;;;21.40;65.40;;;;;;20785267;28;20048;-79
2022/05/18 20:03:05;;;;;;;4.28;1.50;;;21.40;65.50;;;;;;20816962;28;20401;-79
2022/05/18 20:13:07;;;;;;;1.63;1.50;;;21.40;65.50;;;;;;20800384;28;20049;-77
2022/05/18 20:23:08;;;;;;;1.48;1.30;;;21.40;65.60;;;;;;20816961;28;20071;-78
2022/05/18 20:33:08;;;;;;;2.00;1.77;;;21.30;65.50;;;;;;20799362;28;20794;-79
2022/05/18 20:43:16;;;;;;;1.45;1.35;;;21.30;65.50;;;;;;20781638;28;20477;-81
2022/05/18 20:53:18;;;;;;;1.95;1.67;;;21.30;65.50;;;;;;20782596;28;20034;-78
2022/05/18 21:03:19;;;;;;;2.40;1.75;;;21.30;66.20;;;;;;20797351;28;20065;-78
2022/05/18 21:13:20;;;;;;;1.92;1.73;;;21.30;65.60;;;;;;20796869;28;20496;-79
2022/05/18 21:23:21;;;;;;;2.13;1.52;;;21.30;65.60;;;;;;20779775;28;20060;-79
2022/05/18 21:33:21;;;;;;;2.08;1.60;;;21.30;65.60;;;;;;20794702;28;20068;-78
2022/05/18 21:43:24;;;;;;;2.05;1.85;;;21.30;65.60;;;;;;20794744;28;20041;-78
2022/05/18 21:53:25;;;;;;;2.33;1.55;;;21.30;65.60;;;;;;20789265;28;20037;-78
2022/05/18 22:03:31;;;;;;;2.45;1.40;;;21.30;65.60;;;;;;20795010;28;20033;-77
2022/05/18 22:13:32;;;;;;;1.77;1.40;;;21.20;65.50;;;;;;20809102;28;20052;-78
2022/05/18 22:23:33;;;;;;;2.38;1.55;;;21.20;65.60;;;;;;20793005;28;20033;-78
2022/05/18 22:33:34;;;;;;;2.33;1.80;;;21.20;65.60;;;;;;20807901;28;20531;-78
2022/05/18 22:43:36;;;;;;;1.73;1.58;;;21.20;65.60;;;;;;20805936;28;20572;-77
2022/05/18 22:53:36;;;;;;;3.35;2.05;;;21.20;65.60;;;;;;20805445;28;20045;-79
2022/05/18 23:03:37;;;;;;;2.30;2.10;;;21.20;65.60;;;;;;20820755;28;20072;-76
2022/05/18 23:13:37;;;;;;;1.90;1.42;;;21.20;65.60;;;;;;20820635;28;20041;-77
2022/05/18 23:23:39;;;;;;;2.15;1.70;;;21.20;65.60;;;;;;20804738;28;20064;-77
2022/05/18 23:33:40;;;;;;;2.45;1.83;;;21.20;65.60;;;;;;20787738;28;20057;-78
2022/05/18 23:43:41;;;;;;;1.98;1.77;;;21.20;65.60;;;;;;20785418;28;20499;-77
2022/05/18 23:53:41;;;;;;;1.98;1.58;;;21.10;65.50;;;;;;20817335;28;20466;-77
